createdAt,value
2018-06-13T00:02:19.482Z,6.57
2018-06-13T00:04:51.667Z,5.83
2018-06-13T00:07:23.198Z,8.13
2018-06-13T00:09:55.067Z,8.47
2018-06-13T00:12:27.020Z,8.30
2018-06-13T00:14:59.063Z,6.70
2018-06-13T00:17:32.176Z,8.83
2018-06-13T00:20:05.264Z,12.90
2018-06-13T00:22:36.648Z,14.63
2018-06-13T00:25:08.670Z,11.37
2018-06-13T00:27:40.625Z,12.13
2018-06-13T00:30:12.647Z,17.27
2018-06-13T00:32:44.596Z,16.40
2018-06-13T00:35:21.248Z,14.57
2018-06-13T00:37:53.001Z,15.30
2018-06-13T00:40:24.792Z,12.90
2018-06-13T00:42:56.667Z,13.37
2018-06-13T00:45:28.743Z,11.73
2018-06-13T00:48:01.136Z,14.70
2018-06-13T00:50:33.176Z,11.07
2018-06-13T00:53:05.383Z,13.20
2018-06-13T00:55:47.381Z,10.90
2018-06-13T00:58:19.247Z,11.70
2018-06-13T01:00:51.240Z,15.73
2018-06-13T01:03:23.223Z,12.50
2018-06-13T01:05:55.024Z,12.17
2018-06-13T01:08:27.119Z,9.70
2018-06-13T01:10:59.012Z,7.20
2018-06-13T01:13:31.089Z,11.37
2018-06-13T01:16:03.302Z,9.10
2018-06-13T01:18:34.700Z,8.00
2018-06-13T01:21:06.154Z,7.67
2018-06-13T01:23:37.904Z,6.10
2018-06-13T01:26:09.161Z,7.93
2018-06-13T01:28:40.871Z,5.63
2018-06-13T01:31:13.780Z,5.73
2018-06-13T01:33:45.657Z,7.27
2018-06-13T01:36:17.606Z,12.03
2018-06-13T01:38:49.547Z,6.77
2018-06-13T01:45:02.236Z,4.73
2018-06-13T01:47:34.243Z,7.50
2018-06-13T01:50:06.211Z,5.23
2018-06-13T01:52:38.370Z,7.27
2018-06-13T01:55:11.218Z,8.13
2018-06-13T01:57:43.252Z,9.43
2018-06-13T02:00:20.538Z,8.97
2018-06-13T02:02:52.552Z,5.03
2018-06-13T02:05:24.537Z,9.87
2018-06-13T02:07:56.558Z,7.43
2018-06-13T02:10:28.482Z,8.57
2018-06-13T02:13:00.967Z,6.87
2018-06-13T02:15:32.788Z,10.07
2018-06-13T02:18:04.373Z,12.03
2018-06-13T02:20:37.152Z,11.13
2018-06-13T02:23:08.761Z,7.80
2018-06-13T02:25:40.757Z,9.50
2018-06-13T02:28:12.654Z,8.27
2018-06-13T02:30:44.193Z,6.53
2018-06-13T02:33:16.035Z,7.53
2018-06-13T02:35:48.142Z,7.33
2018-06-13T02:38:20.372Z,8.43
2018-06-13T02:40:52.875Z,7.17
2018-06-13T02:43:24.916Z,7.40
2018-06-13T02:45:56.861Z,9.23
2018-06-13T02:48:28.972Z,9.83
2018-06-13T02:51:01.196Z,10.93
2018-06-13T02:53:34.160Z,8.60
2018-06-13T02:56:06.404Z,10.53
2018-06-13T02:58:39.085Z,9.37
2018-06-13T03:01:11.111Z,8.27
2018-06-13T03:03:44.112Z,7.67
2018-06-13T03:06:15.452Z,5.97
2018-06-13T03:08:47.199Z,7.87
2018-06-13T03:11:19.124Z,6.37
2018-06-13T03:13:50.518Z,8.13
2018-06-13T03:16:22.373Z,7.07
2018-06-13T03:18:54.241Z,9.63
2018-06-13T03:21:26.143Z,5.03
2018-06-13T03:23:57.790Z,9.20
2018-06-13T03:26:29.629Z,10.20
2018-06-13T03:29:01.780Z,12.10
2018-06-13T03:31:33.930Z,10.33
2018-06-13T03:34:06.653Z,5.80
2018-06-13T03:36:38.643Z,8.87
2018-06-13T03:39:11.063Z,5.40
2018-06-13T03:41:43.577Z,6.60
2018-06-13T03:44:15.506Z,12.63
2018-06-13T03:46:47.624Z,6.13
2018-06-13T03:49:19.147Z,5.73
2018-06-13T03:51:50.992Z,7.30
2018-06-13T03:54:23.011Z,5.53
2018-06-13T03:56:55.172Z,6.37
2018-06-13T03:59:26.991Z,7.83
2018-06-13T04:01:58.915Z,7.30
2018-06-13T04:04:31.022Z,6.50
2018-06-13T04:07:03.409Z,9.67
2018-06-13T04:09:35.365Z,7.57
2018-06-13T04:12:07.429Z,6.83
2018-06-13T04:14:39.404Z,7.07
2018-06-13T04:17:11.373Z,9.43
2018-06-13T04:19:43.351Z,8.53
2018-06-13T04:22:15.280Z,7.20
2018-06-13T04:24:47.225Z,6.53
2018-06-13T04:27:19.300Z,11.53
2018-06-13T04:29:51.366Z,16.47
2018-06-13T04:32:23.488Z,15.83
2018-06-13T04:34:55.319Z,20.77
2018-06-13T04:37:27.560Z,19.73
2018-06-13T04:39:59.500Z,16.87
2018-06-13T04:42:31.954Z,18.00
2018-06-13T04:45:03.833Z,18.53
2018-06-13T04:47:35.591Z,15.57
2018-06-13T04:50:07.033Z,14.50
2018-06-13T04:52:39.194Z,6.93
2018-06-13T04:55:11.503Z,6.47
2018-06-13T04:57:44.617Z,8.17
2018-06-13T05:00:18.709Z,4.97
2018-06-13T05:02:52.833Z,4.67
2018-06-13T05:05:25.268Z,5.87
2018-06-13T05:07:58.204Z,9.03
2018-06-13T05:10:30.271Z,6.17
2018-06-13T05:13:03.047Z,12.07
2018-06-13T05:15:35.425Z,14.77
2018-06-13T05:18:09.339Z,19.30
2018-06-13T05:20:41.713Z,14.60
2018-06-13T05:23:13.684Z,15.40
2018-06-13T05:25:46.518Z,17.67
2018-06-13T05:28:19.494Z,13.57
2018-06-13T05:30:51.381Z,16.83
2018-06-13T05:33:22.590Z,14.80
2018-06-13T05:35:54.311Z,14.17
2018-06-13T05:38:26.592Z,14.90
2018-06-13T05:40:58.345Z,11.07
2018-06-13T05:43:30.783Z,11.33
2018-06-13T05:46:03.102Z,8.80
2018-06-13T05:48:36.079Z,8.20
2018-06-13T05:51:08.148Z,26.13
2018-06-13T05:53:40.132Z,15.77
2018-06-13T05:56:12.103Z,14.17
2018-06-13T05:58:43.657Z,18.60
2018-06-13T06:01:15.616Z,26.53
2018-06-13T06:03:47.399Z,21.20
2018-06-13T06:06:18.629Z,48.50
2018-06-13T06:08:53.795Z,53.13
2018-06-13T06:11:25.915Z,23.87
2018-06-13T06:13:58.732Z,24.67
2018-06-13T06:16:33.015Z,27.40
2018-06-13T06:19:05.341Z,26.07
2018-06-13T06:21:37.723Z,23.43
2018-06-13T06:24:09.776Z,26.17
2018-06-13T06:26:50.311Z,24.93
2018-06-13T06:29:23.112Z,22.87
2018-06-13T06:31:56.511Z,25.57
2018-06-13T06:34:32.340Z,21.40
2018-06-13T06:37:08.694Z,22.30
2018-06-13T06:39:41.164Z,21.20
2018-06-13T06:42:14.475Z,22.93
2018-06-13T06:44:48.907Z,29.50
2018-06-13T06:47:20.315Z,21.33
2018-06-13T06:49:52.143Z,21.47
2018-06-13T06:52:24.171Z,20.20
2018-06-13T06:54:55.684Z,21.80
2018-06-13T06:57:27.499Z,23.70
2018-06-13T06:59:59.687Z,18.97
2018-06-13T07:02:31.220Z,19.40
2018-06-13T07:05:04.833Z,21.33
2018-06-13T07:07:36.799Z,24.90
2018-06-13T07:10:10.469Z,22.23
2018-06-13T07:12:42.435Z,22.40
2018-06-13T07:15:16.287Z,32.23
2018-06-13T07:17:48.568Z,26.63
2018-06-13T07:20:20.913Z,25.93
2018-06-13T07:22:53.116Z,24.57
2018-06-13T07:25:25.487Z,29.63
2018-06-13T07:27:57.923Z,37.63
2018-06-13T07:30:29.625Z,38.83
2018-06-13T07:33:01.982Z,36.53
2018-06-13T07:35:34.616Z,37.33
2018-06-13T07:38:06.114Z,43.90
2018-06-13T07:40:38.068Z,32.17
2018-06-13T07:43:10.091Z,29.00
2018-06-13T07:45:42.171Z,32.90
2018-06-13T07:48:14.211Z,28.13
2018-06-13T07:50:46.189Z,32.77
2018-06-13T07:53:17.463Z,30.43
2018-06-13T07:55:49.234Z,25.10
2018-06-13T07:58:21.245Z,25.13
2018-06-13T08:00:53.470Z,17.07
2018-06-13T08:03:25.740Z,14.73
2018-06-13T08:05:58.579Z,10.23
2018-06-13T08:08:31.550Z,9.67
2018-06-13T08:11:04.565Z,9.67
2018-06-13T08:13:36.432Z,9.13
2018-06-13T08:16:08.414Z,10.93
2018-06-13T08:18:39.997Z,9.75
2018-06-13T08:21:11.301Z,7.90
2018-06-13T08:23:43.172Z,4.97
2018-06-13T08:26:15.282Z,5.90
2018-06-13T08:28:47.469Z,5.43
2018-06-13T08:31:19.463Z,7.40
2018-06-13T08:33:51.615Z,7.53
2018-06-13T08:36:23.900Z,10.77
2018-06-13T08:38:55.792Z,8.70
2018-06-13T08:41:28.031Z,6.00
2018-06-13T08:43:59.471Z,5.93
2018-06-13T08:46:31.500Z,7.10
2018-06-13T08:49:03.795Z,6.77
2018-06-13T08:51:35.839Z,7.57
2018-06-13T08:54:07.709Z,11.40
2018-06-13T08:56:39.942Z,14.03
2018-06-13T08:59:11.984Z,11.07
2018-06-13T09:01:44.085Z,7.43
2018-06-13T09:04:16.983Z,10.50
2018-06-13T09:06:48.953Z,11.07
2018-06-13T09:09:21.090Z,7.10
2018-06-13T09:11:52.969Z,5.83
2018-06-13T09:14:25.043Z,4.57
2018-06-13T09:16:56.930Z,6.40
2018-06-13T09:19:29.269Z,4.70
2018-06-13T09:22:01.492Z,5.03
2018-06-13T09:24:33.317Z,4.43
2018-06-13T09:27:05.798Z,4.27
2018-06-13T09:29:40.301Z,3.33
2018-06-13T09:32:12.588Z,3.30
2018-06-13T09:34:45.003Z,3.50
2018-06-13T09:37:16.943Z,3.60
2018-06-13T09:39:49.273Z,3.47
2018-06-13T09:42:21.101Z,2.23
2018-06-13T09:44:53.665Z,3.13
2018-06-13T09:47:25.785Z,2.77
2018-06-13T09:49:57.664Z,3.57
2018-06-13T09:52:30.013Z,2.83
2018-06-13T09:55:01.995Z,2.70
2018-06-13T09:57:35.069Z,2.37
2018-06-13T10:00:11.876Z,2.67
2018-06-13T10:02:46.028Z,3.90
2018-06-13T10:05:22.006Z,3.07
2018-06-13T10:07:53.960Z,2.43
2018-06-13T10:10:25.666Z,2.93
2018-06-13T10:12:57.500Z,3.37
2018-06-13T10:15:30.069Z,3.07
2018-06-13T10:18:02.332Z,3.13
2018-06-13T10:20:36.518Z,2.47
2018-06-13T10:23:13.269Z,4.00
2018-06-13T10:26:01.286Z,3.87
2018-06-13T10:28:36.679Z,3.73
2018-06-13T10:31:08.773Z,3.40
2018-06-13T10:33:44.100Z,4.17
2018-06-13T10:36:16.338Z,3.83
2018-06-13T10:38:50.100Z,4.50
2018-06-13T10:41:26.368Z,4.70
2018-06-13T10:49:45.494Z,6.20
2018-06-13T10:52:41.284Z,3.50
2018-06-13T10:55:40.125Z,7.23
2018-06-13T10:58:20.495Z,6.57
2018-06-13T11:04:30.971Z,4.67
2018-06-13T11:07:07.613Z,4.83
2018-06-13T11:10:01.850Z,4.70
2018-06-13T11:12:37.166Z,4.50
2018-06-13T11:15:13.685Z,4.67
2018-06-13T11:18:17.007Z,5.17
2018-06-13T11:21:15.410Z,5.37
2018-06-13T11:24:20.785Z,4.67
2018-06-13T11:27:02.218Z,5.97
2018-06-13T11:29:34.820Z,3.93
2018-06-13T11:32:09.966Z,5.73
2018-06-13T11:34:43.991Z,7.93
2018-06-13T11:37:22.814Z,6.23
2018-06-13T11:39:57.133Z,6.70
2018-06-13T11:42:28.994Z,6.10
2018-06-13T11:45:06.699Z,4.50
2018-06-13T11:47:43.124Z,4.97
2018-06-13T11:50:29.732Z,6.97
2018-06-13T11:53:01.784Z,7.30
2018-06-13T11:55:33.902Z,6.17
2018-06-13T11:58:06.096Z,7.67
2018-06-13T12:00:37.800Z,5.67
2018-06-13T12:03:09.501Z,6.73
2018-06-13T12:05:41.381Z,7.67
2018-06-13T12:08:13.287Z,8.87
2018-06-13T12:10:45.116Z,8.50
2018-06-13T12:13:16.418Z,6.10
2018-06-13T12:15:48.269Z,11.70
2018-06-13T12:18:20.174Z,7.43
2018-06-13T12:20:54.801Z,7.20
2018-06-13T12:23:29.923Z,6.70
2018-06-13T12:26:02.355Z,5.83
2018-06-13T12:28:34.493Z,5.57
2018-06-13T12:31:06.331Z,8.70
2018-06-13T12:33:45.110Z,8.43
2018-06-13T12:36:54.523Z,7.10
2018-06-13T12:39:35.145Z,8.00
2018-06-13T12:42:25.152Z,6.13
2018-06-13T12:45:19.783Z,7.67
2018-06-13T12:48:02.028Z,6.10
2018-06-13T12:50:47.159Z,8.80
2018-06-13T12:53:25.929Z,6.23
2018-06-13T12:56:16.653Z,7.47
2018-06-13T13:01:41.516Z,5.20
2018-06-13T13:04:20.397Z,5.83
2018-06-13T13:07:02.821Z,8.30
2018-06-13T13:09:41.621Z,6.23
2018-06-13T13:12:26.159Z,5.00
2018-06-13T13:15:06.237Z,8.30
2018-06-13T13:17:41.176Z,7.77
2018-06-13T13:20:22.774Z,7.97
2018-06-13T13:23:01.369Z,7.97
2018-06-13T13:25:35.501Z,6.73
2018-06-13T13:28:10.251Z,7.43
2018-06-13T13:30:43.183Z,11.77
2018-06-13T13:33:21.327Z,9.17
2018-06-13T13:35:56.520Z,5.27
2018-06-13T13:38:33.283Z,7.17
2018-06-13T13:41:06.377Z,5.07
2018-06-13T13:43:38.551Z,8.43
2018-06-13T13:46:17.873Z,8.90
2018-06-13T13:48:51.292Z,6.23
2018-06-13T13:51:47.378Z,7.23
2018-06-13T13:54:25.079Z,8.13
2018-06-13T13:57:16.259Z,8.93
2018-06-13T13:59:56.924Z,8.20
2018-06-13T14:02:32.228Z,9.73
2018-06-13T14:05:08.868Z,6.07
2018-06-13T14:07:44.452Z,4.83
2018-06-13T14:10:28.348Z,7.87
2018-06-13T14:13:02.021Z,4.73
2018-06-13T14:15:34.068Z,7.23
2018-06-13T14:18:06.367Z,6.80
2018-06-13T14:20:39.625Z,5.50
2018-06-13T14:23:12.645Z,5.03
2018-06-13T14:25:44.225Z,5.63
2018-06-13T14:28:15.908Z,4.70
2018-06-13T14:30:47.829Z,9.07
2018-06-13T14:33:19.920Z,3.83
2018-06-13T14:35:51.437Z,2.80
2018-06-13T14:38:23.143Z,2.80
2018-06-13T14:40:54.029Z,5.83
2018-06-13T14:43:26.023Z,5.73
2018-06-13T14:45:57.891Z,3.20
2018-06-13T14:48:29.529Z,3.57
2018-06-13T14:51:01.382Z,5.40
2018-06-13T14:53:33.386Z,6.63
2018-06-13T14:56:09.677Z,5.23
2018-06-13T14:58:41.395Z,7.20
2018-06-13T15:01:13.250Z,6.63
2018-06-13T15:03:44.986Z,2.83
2018-06-13T15:06:17.139Z,4.00
2018-06-13T15:08:49.015Z,5.27
2018-06-13T15:11:20.838Z,5.57
2018-06-13T15:13:52.148Z,4.97
2018-06-13T15:16:24.390Z,4.27
2018-06-13T15:18:56.888Z,5.80
2018-06-13T15:21:28.770Z,3.60
2018-06-13T15:24:00.802Z,4.47
2018-06-13T15:26:32.576Z,5.30
2018-06-13T15:29:04.560Z,6.00
2018-06-13T15:31:36.395Z,3.73
2018-06-13T15:34:08.092Z,5.57
2018-06-13T15:36:40.455Z,5.03
2018-06-13T15:39:16.250Z,7.13
2018-06-13T15:41:48.251Z,4.83
2018-06-13T15:44:20.174Z,6.53
2018-06-13T15:46:52.231Z,9.53
2018-06-13T15:49:24.399Z,6.43
2018-06-13T15:51:56.123Z,9.80
2018-06-13T15:54:28.053Z,5.43
2018-06-13T15:57:00.083Z,6.20
2018-06-13T15:59:32.038Z,6.97
2018-06-13T16:02:04.375Z,6.70
2018-06-13T16:04:36.435Z,7.93
2018-06-13T16:07:08.772Z,4.00
2018-06-13T16:09:40.856Z,4.77
2018-06-13T16:12:13.029Z,9.20
2018-06-13T16:14:50.680Z,8.70
2018-06-13T16:17:24.082Z,7.70
2018-06-13T16:19:56.072Z,9.67
2018-06-13T16:22:29.444Z,6.40
2018-06-13T16:25:01.538Z,7.03
2018-06-13T16:27:33.740Z,6.77
2018-06-13T16:30:06.036Z,5.87
2018-06-13T16:32:38.041Z,5.53
2018-06-13T16:35:10.817Z,6.23
2018-06-13T16:37:43.411Z,6.53
2018-06-13T16:40:18.621Z,6.03
2018-06-13T16:42:50.937Z,5.60
2018-06-13T16:45:24.863Z,7.87
2018-06-13T16:47:57.387Z,5.83
2018-06-13T16:50:45.427Z,6.37
2018-06-13T16:54:35.979Z,5.53
2018-06-13T16:57:10.022Z,6.47
2018-06-13T16:59:42.234Z,12.10
2018-06-13T17:02:14.320Z,9.17
2018-06-13T17:04:46.049Z,7.43
2018-06-13T17:07:19.699Z,7.67
2018-06-13T17:09:51.757Z,6.03
2018-06-13T17:12:24.376Z,5.87
2018-06-13T17:14:56.736Z,3.93
2018-06-13T17:17:28.817Z,4.13
2018-06-13T17:20:02.304Z,3.70
2018-06-13T17:22:34.721Z,7.10
2018-06-13T17:25:06.914Z,7.00
2018-06-13T17:27:38.392Z,5.57
2018-06-13T17:30:09.723Z,4.53
2018-06-13T17:32:41.780Z,9.03
2018-06-13T17:35:13.947Z,12.03
2018-06-13T17:37:47.060Z,11.17
2018-06-13T17:40:20.966Z,8.63
2018-06-13T17:42:56.946Z,9.13
2018-06-13T17:45:30.385Z,3.67
2018-06-13T17:48:06.011Z,3.43
2018-06-13T17:50:45.887Z,2.60
2018-06-13T17:53:20.827Z,3.40
2018-06-13T17:55:58.110Z,3.93
2018-06-13T17:58:34.669Z,4.17
2018-06-13T18:01:14.140Z,5.03
2018-06-13T18:03:49.154Z,3.03
2018-06-13T18:06:21.651Z,2.10
2018-06-13T18:08:53.090Z,1.70
2018-06-13T18:11:25.471Z,2.17
2018-06-13T18:13:57.432Z,6.63
2018-06-13T18:16:29.167Z,3.13
2018-06-13T18:19:01.099Z,3.63
2018-06-13T18:21:33.644Z,2.20
2018-06-13T18:24:05.853Z,1.73
2018-06-13T18:26:38.191Z,4.80
2018-06-13T18:29:10.173Z,4.53
2018-06-13T18:31:43.102Z,3.30
2018-06-13T18:34:15.400Z,3.20
2018-06-13T18:36:47.438Z,2.80
2018-06-13T18:39:20.946Z,3.27
2018-06-13T18:41:53.824Z,4.70
2018-06-13T18:44:26.830Z,3.40
2018-06-13T18:46:59.026Z,2.60
2018-06-13T18:49:30.553Z,1.70
2018-06-13T18:52:03.613Z,4.00
2018-06-13T18:54:36.247Z,2.77
2018-06-13T18:57:12.880Z,2.00
2018-06-13T18:59:44.883Z,2.53
2018-06-13T19:02:16.445Z,1.30
2018-06-13T19:04:48.263Z,1.30
2018-06-13T19:07:20.115Z,2.30
2018-06-13T19:09:52.138Z,2.20
2018-06-13T19:12:25.150Z,0.70
2018-06-13T19:14:57.441Z,1.73
2018-06-13T19:17:29.726Z,0.90
2018-06-13T19:20:01.332Z,1.40
2018-06-13T19:22:33.387Z,2.87
2018-06-13T19:25:06.331Z,1.60
2018-06-13T19:27:39.414Z,2.07
2018-06-13T19:30:11.461Z,2.53
2018-06-13T19:32:43.894Z,3.70
2018-06-13T19:35:16.288Z,2.37
2018-06-13T19:37:48.337Z,5.97
2018-06-13T19:40:20.358Z,2.17
2018-06-13T19:42:52.192Z,1.93
2018-06-13T19:45:24.538Z,2.67
2018-06-13T19:48:01.268Z,2.23
2018-06-13T19:50:33.069Z,3.33
2018-06-13T19:53:09.975Z,2.97
2018-06-13T19:55:46.454Z,2.93
2018-06-13T19:58:18.402Z,6.03
2018-06-13T20:00:50.200Z,5.97
2018-06-13T20:03:27.503Z,6.80
2018-06-13T20:05:59.412Z,5.60
2018-06-13T20:08:31.399Z,2.60
2018-06-13T20:11:03.329Z,4.47
2018-06-13T20:13:39.956Z,5.20
2018-06-13T20:16:16.758Z,3.93
2018-06-13T20:18:53.423Z,4.70
2018-06-13T20:21:25.614Z,5.03
2018-06-13T20:23:57.612Z,7.23
2018-06-13T20:26:34.302Z,4.80
2018-06-13T20:29:11.043Z,9.57
2018-06-13T20:31:44.805Z,6.93
2018-06-13T20:34:16.634Z,5.43
2018-06-13T20:36:48.480Z,5.20
2018-06-13T20:39:20.320Z,4.90
2018-06-13T20:41:51.760Z,3.30
2018-06-13T20:44:23.757Z,5.23
2018-06-13T20:46:56.230Z,9.30
2018-06-13T20:49:28.156Z,8.60
2018-06-13T20:51:59.809Z,6.77
2018-06-13T20:54:31.602Z,6.60
2018-06-13T20:57:03.569Z,8.87
2018-06-13T20:59:35.248Z,6.00
2018-06-13T21:02:07.505Z,5.87
2018-06-13T21:04:39.822Z,6.87
2018-06-13T21:07:17.332Z,5.60
2018-06-13T21:09:49.839Z,4.57
2018-06-13T21:12:22.362Z,4.40
2018-06-13T21:14:54.756Z,4.67
2018-06-13T21:17:27.054Z,6.47
2018-06-13T21:19:59.095Z,5.73
2018-06-13T21:22:31.270Z,5.10
2018-06-13T21:25:03.411Z,3.93
2018-06-13T21:27:35.414Z,6.17
2018-06-13T21:30:07.864Z,4.67
2018-06-13T21:32:40.167Z,4.67
2018-06-13T21:35:12.486Z,3.70
2018-06-13T21:37:44.408Z,2.97
2018-06-13T21:40:16.258Z,5.03
2018-06-13T21:42:47.622Z,3.57
2018-06-13T21:45:19.579Z,4.93
2018-06-13T21:47:51.772Z,2.90
2018-06-13T21:50:24.169Z,2.33
2018-06-13T21:52:56.235Z,4.37
2018-06-13T21:55:29.504Z,4.17
2018-06-13T21:58:01.852Z,3.20
2018-06-13T22:00:33.533Z,3.80
2018-06-13T22:03:05.496Z,5.27
2018-06-13T22:05:37.377Z,5.50
2018-06-13T22:08:09.089Z,4.07
2018-06-13T22:10:43.924Z,3.23
2018-06-13T22:13:16.385Z,3.43
2018-06-13T22:15:48.316Z,3.83
2018-06-13T22:18:20.461Z,4.10
2018-06-13T22:20:52.650Z,2.43
2018-06-13T22:23:25.421Z,3.20
2018-06-13T22:25:57.473Z,2.60
2018-06-13T22:28:29.736Z,3.80
2018-06-13T22:31:02.902Z,4.93
2018-06-13T22:33:36.497Z,3.43
2018-06-13T22:36:08.680Z,2.60
2018-06-13T22:38:41.067Z,3.27
2018-06-13T22:41:13.357Z,4.03
2018-06-13T22:43:47.326Z,4.83
2018-06-13T22:46:19.884Z,4.83
2018-06-13T22:48:52.823Z,3.67
2018-06-13T22:51:24.896Z,4.70
2018-06-13T22:53:57.062Z,5.73
2018-06-13T22:56:29.235Z,5.33
2018-06-13T22:59:02.446Z,4.77
2018-06-13T23:01:35.140Z,6.53
2018-06-13T23:04:53.484Z,8.80
2018-06-13T23:07:30.007Z,6.43
2018-06-13T23:10:02.280Z,8.07
2018-06-13T23:12:34.212Z,5.03
2018-06-13T23:15:06.540Z,3.83
2018-06-13T23:17:38.824Z,7.27
2018-06-13T23:20:10.768Z,6.17
2018-06-13T23:22:42.959Z,8.07
2018-06-13T23:25:14.802Z,6.10
2018-06-13T23:27:47.001Z,6.33
2018-06-13T23:30:19.333Z,5.07
2018-06-13T23:32:51.410Z,5.40
2018-06-13T23:35:23.639Z,4.13
2018-06-13T23:37:55.735Z,10.87
2018-06-13T23:40:28.140Z,5.90
2018-06-13T23:43:00.030Z,7.83
2018-06-13T23:45:32.414Z,4.70
2018-06-13T23:48:04.682Z,6.27
2018-06-13T23:50:36.052Z,4.57
2018-06-13T23:53:07.604Z,7.23
2018-06-13T23:55:39.449Z,7.63
2018-06-13T23:58:11.529Z,7.93
